createdAt,value
2022-11-01T14:57:21.907Z,956.92
2022-11-01T14:58:22.872Z,956.89
2022-11-01T14:59:22.842Z,956.93
2022-11-01T15:00:22.826Z,956.92
2022-11-01T15:01:22.908Z,956.95
2022-11-01T15:02:22.954Z,956.96
2022-11-01T15:03:22.810Z,956.95
2022-11-01T15:04:22.782Z,956.95
2022-11-01T15:05:22.789Z,957.00
2022-11-01T15:06:22.747Z,957.00
2022-11-01T15:07:26.170Z,956.98
2022-11-01T15:08:22.747Z,957.02
2022-11-01T15:09:22.814Z,957.00
2022-11-01T15:10:22.697Z,956.99
2022-11-01T15:11:22.689Z,957.03
2022-11-01T15:12:22.701Z,957.05
2022-11-01T15:13:22.668Z,957.07
2022-11-01T15:14:22.649Z,957.08
2022-11-01T15:15:22.621Z,957.14
2022-11-01T15:16:22.631Z,957.15
2022-11-01T15:17:22.583Z,957.15
2022-11-01T15:18:22.662Z,957.17
2022-11-01T15:19:22.561Z,957.19
2022-11-01T15:20:22.552Z,957.21
2022-11-01T15:21:24.376Z,957.18
2022-11-01T15:22:22.530Z,957.16
2022-11-01T15:23:22.532Z,957.21
2022-11-01T15:24:22.492Z,957.19
2022-11-01T15:25:22.486Z,957.21
2022-11-01T15:26:22.487Z,957.22
2022-11-01T15:27:22.492Z,957.25
2022-11-01T15:28:22.440Z,957.27
2022-11-01T15:29:22.457Z,957.22
2022-11-01T15:30:22.420Z,957.22
2022-11-01T15:31:22.449Z,957.23
2022-11-01T15:32:22.391Z,957.25
2022-11-01T15:33:22.367Z,957.22
2022-11-01T15:34:22.371Z,957.21
2022-11-01T15:35:22.342Z,957.23
2022-11-01T15:36:22.370Z,957.20
2022-11-01T15:37:22.353Z,957.24
2022-11-01T15:38:22.300Z,957.24
2022-11-01T15:39:22.303Z,957.27
2022-11-01T15:40:22.279Z,957.26
2022-11-01T15:41:22.302Z,957.32
2022-11-01T15:42:22.258Z,957.30
2022-11-01T15:43:22.249Z,957.31
2022-11-01T15:44:22.231Z,957.29
2022-11-01T15:45:22.208Z,957.29
2022-11-01T15:46:22.240Z,957.31
2022-11-01T15:47:22.179Z,957.29
2022-11-01T15:48:22.181Z,957.26
2022-11-01T15:49:22.191Z,957.27
2022-11-01T15:50:22.137Z,957.25
2022-11-01T15:51:22.122Z,957.25
2022-11-01T15:52:22.124Z,957.22
2022-11-01T15:53:22.115Z,957.22
2022-11-01T15:54:22.121Z,957.25
2022-11-01T15:55:22.067Z,957.23
2022-11-01T15:56:22.065Z,957.25
2022-11-01T15:57:22.037Z,957.34
2022-11-01T15:58:22.044Z,957.25
2022-11-01T15:59:22.043Z,957.27
2022-11-01T16:00:22.004Z,957.28
2022-11-01T16:01:22.119Z,957.30
2022-11-01T16:02:22.160Z,957.32
2022-11-01T16:03:21.990Z,957.34
2022-11-01T16:04:21.960Z,957.33
2022-11-01T16:05:21.946Z,957.36
2022-11-01T16:06:21.927Z,957.36
2022-11-01T16:07:21.906Z,957.38
2022-11-01T16:08:21.941Z,957.41
2022-11-01T16:09:21.888Z,957.38
2022-11-01T16:10:21.877Z,957.43
2022-11-01T16:11:21.860Z,957.41
2022-11-01T16:12:21.882Z,957.39
2022-11-01T16:13:21.850Z,957.39
2022-11-01T16:14:21.812Z,957.43
2022-11-01T16:15:21.797Z,957.42
2022-11-01T16:16:21.820Z,957.42
2022-11-01T16:17:21.770Z,957.44
2022-11-01T16:18:21.766Z,957.44
2022-11-01T16:19:21.779Z,957.43
2022-11-01T16:20:21.740Z,957.46
2022-11-01T16:21:21.747Z,957.46
2022-11-01T16:22:21.710Z,957.48
2022-11-01T16:23:21.706Z,957.54
2022-11-01T16:24:21.679Z,957.57
2022-11-01T16:25:21.700Z,957.58
2022-11-01T16:26:21.699Z,957.56
2022-11-01T16:27:21.663Z,957.60
2022-11-01T16:28:21.620Z,957.56
2022-11-01T16:29:21.625Z,957.57
2022-11-01T16:30:21.602Z,957.56
2022-11-01T16:31:21.590Z,957.60
2022-11-01T16:32:21.596Z,957.62
2022-11-01T16:33:21.599Z,957.62
2022-11-01T16:34:21.547Z,957.63
2022-11-01T16:35:21.528Z,957.66
2022-11-01T16:36:21.558Z,957.65
2022-11-01T16:37:21.511Z,957.67
2022-11-01T16:38:21.493Z,957.73
2022-11-01T16:39:21.509Z,957.69
2022-11-01T16:40:21.460Z,957.72
2022-11-01T16:41:21.468Z,957.73
2022-11-01T16:42:21.462Z,957.73
2022-11-01T16:43:21.461Z,957.75
2022-11-01T16:44:21.414Z,957.75
2022-11-01T16:45:21.384Z,957.79
2022-11-01T16:46:21.378Z,957.76
2022-11-01T16:47:21.390Z,957.78
2022-11-01T16:48:21.374Z,957.78
2022-11-01T16:49:21.364Z,957.81
2022-11-01T16:50:21.333Z,957.83
2022-11-01T16:51:21.311Z,957.83
2022-11-01T16:52:21.297Z,957.84
2022-11-01T16:53:21.282Z,957.87
2022-11-01T16:54:21.297Z,957.85
2022-11-01T16:55:22.749Z,957.82
2022-11-01T16:56:36.138Z,957.89
2022-11-01T16:57:21.257Z,957.89
2022-11-01T16:58:21.222Z,957.89
2022-11-01T16:59:21.199Z,957.90
2022-11-01T17:00:21.200Z,957.93
2022-11-01T17:01:21.266Z,957.93
2022-11-01T17:02:21.344Z,957.94
2022-11-01T17:03:21.143Z,957.95
2022-11-01T17:04:21.173Z,957.90
2022-11-01T17:05:21.194Z,957.91
2022-11-01T17:06:21.100Z,957.94
2022-11-01T17:07:21.085Z,957.98
2022-11-01T17:08:21.080Z,957.98
2022-11-01T17:09:21.089Z,958.02
2022-11-01T17:10:21.101Z,958.02
2022-11-01T17:11:21.033Z,958.04
2022-11-01T17:12:21.015Z,958.09
2022-11-01T17:13:21.011Z,958.12
2022-11-01T17:14:21.052Z,958.13
2022-11-01T17:15:21.066Z,958.15
2022-11-01T17:16:20.964Z,958.12
2022-11-01T17:17:20.947Z,958.15
2022-11-01T17:18:24.264Z,958.12
2022-11-01T17:19:20.973Z,958.12
2022-11-01T17:20:20.926Z,958.13
2022-11-01T17:21:20.897Z,958.14
2022-11-01T17:22:20.912Z,958.13
2022-11-01T17:23:20.903Z,958.16
2022-11-01T17:24:20.843Z,958.15
2022-11-01T17:25:20.836Z,958.16
2022-11-01T17:26:20.821Z,958.13
2022-11-01T17:27:20.836Z,958.16
2022-11-01T17:28:20.807Z,958.15
2022-11-01T17:29:20.777Z,958.15
2022-11-01T17:30:20.779Z,958.15
2022-11-01T17:31:20.761Z,958.19
2022-11-01T17:32:20.778Z,958.19
2022-11-01T17:33:20.726Z,958.20
2022-11-01T17:34:20.821Z,958.22
2022-11-01T17:35:24.250Z,958.22
2022-11-01T17:36:20.703Z,958.21
2022-11-01T17:37:20.822Z,958.25
2022-11-01T17:38:20.671Z,958.24
2022-11-01T17:39:20.655Z,958.24
2022-11-01T17:40:20.706Z,958.28
2022-11-01T17:41:20.651Z,958.28
2022-11-01T17:42:20.611Z,958.34
2022-11-01T17:43:20.596Z,958.37
2022-11-01T17:44:20.585Z,958.41
2022-11-01T17:45:20.617Z,958.37
2022-11-01T17:46:20.550Z,958.38
2022-11-01T17:47:20.569Z,958.35
2022-11-01T17:48:20.528Z,958.37
2022-11-01T17:49:20.518Z,958.36
2022-11-01T17:50:20.522Z,958.37
2022-11-01T17:51:20.511Z,958.43
2022-11-01T17:52:20.479Z,958.41
2022-11-01T17:53:20.458Z,958.39
2022-11-01T17:54:20.514Z,958.40
2022-11-01T17:55:20.471Z,958.41
2022-11-01T17:56:20.422Z,958.40
2022-11-01T17:57:20.439Z,958.43
2022-11-01T17:58:20.391Z,958.42
2022-11-01T17:59:20.380Z,958.42
2022-11-01T18:00:20.433Z,958.41
2022-11-01T18:01:20.601Z,958.42
2022-11-01T18:02:20.562Z,958.42
2022-11-01T18:03:20.324Z,958.44
2022-11-01T18:04:20.332Z,958.43
2022-11-01T18:05:20.297Z,958.43
2022-11-01T18:06:20.321Z,958.42
2022-11-01T18:07:20.274Z,958.41
2022-11-01T18:08:20.287Z,958.40
2022-11-01T18:09:20.239Z,958.40
2022-11-01T18:10:20.296Z,958.37
2022-11-01T18:11:20.247Z,958.39
2022-11-01T18:12:20.228Z,958.39
2022-11-01T18:13:20.192Z,958.39
2022-11-01T18:14:20.177Z,958.40
2022-11-01T18:15:20.159Z,958.41
2022-11-01T18:16:20.206Z,958.43
2022-11-01T18:17:20.127Z,958.43
2022-11-01T18:18:20.130Z,958.43
2022-11-01T18:19:20.108Z,958.43
2022-11-01T18:20:20.140Z,958.45
2022-11-01T18:21:20.079Z,958.44
2022-11-01T18:22:20.095Z,958.49
2022-11-01T18:23:20.052Z,958.44
2022-11-01T18:24:22.627Z,958.48
2022-11-01T18:25:20.031Z,958.49
2022-11-01T18:26:20.009Z,958.48
2022-11-01T18:27:20.025Z,958.48
2022-11-01T18:28:19.989Z,958.50
2022-11-01T18:29:19.970Z,958.45
2022-11-01T18:30:19.970Z,958.46
2022-11-01T18:31:19.949Z,958.45
2022-11-01T18:32:19.982Z,958.48
2022-11-01T18:33:19.924Z,958.47
2022-11-01T18:34:19.899Z,958.47
2022-11-01T18:35:19.899Z,958.43
2022-11-01T18:36:19.969Z,958.48
2022-11-01T18:37:19.887Z,958.48
2022-11-01T18:38:22.168Z,958.51
2022-11-01T18:39:19.849Z,958.54
2022-11-01T18:40:19.835Z,958.54
2022-11-01T18:41:19.819Z,958.53
2022-11-01T18:42:19.829Z,958.55
2022-11-01T18:43:19.773Z,958.53
2022-11-01T18:44:19.771Z,958.47
2022-11-01T18:45:19.766Z,958.50
2022-11-01T18:46:27.584Z,958.51
2022-11-01T18:47:19.739Z,958.57
2022-11-01T18:48:19.743Z,958.54
2022-11-01T18:49:19.735Z,958.55
2022-11-01T18:50:19.712Z,958.57
2022-11-01T18:51:19.714Z,958.58
2022-11-01T18:52:19.663Z,958.57
2022-11-01T18:53:19.646Z,958.60
2022-11-01T18:54:19.641Z,958.60
2022-11-01T18:55:19.703Z,958.59
2022-11-01T18:56:19.609Z,958.59
2022-11-01T18:57:19.617Z,958.59
2022-11-01T18:58:19.613Z,958.56
2022-11-01T18:59:19.584Z,958.58
2022-11-01T19:00:19.564Z,958.59
2022-11-01T19:01:19.700Z,958.59
2022-11-01T19:02:19.616Z,958.56
2022-11-01T19:03:24.075Z,958.60
2022-11-01T19:04:19.523Z,958.61
2022-11-01T19:05:19.505Z,958.57
2022-11-01T19:06:19.487Z,958.55
2022-11-01T19:07:19.479Z,958.58
2022-11-01T19:08:19.452Z,958.56
2022-11-01T19:09:19.447Z,958.62
2022-11-01T19:10:19.468Z,958.58
2022-11-01T19:11:19.435Z,958.57
2022-11-01T19:12:22.770Z,958.58
2022-11-01T19:13:19.386Z,958.61
2022-11-01T19:14:19.364Z,958.55
2022-11-01T19:15:19.394Z,958.55
2022-11-01T19:16:19.394Z,958.52
2022-11-01T19:17:19.337Z,958.53
2022-11-01T19:18:19.321Z,958.54
2022-11-01T19:19:19.318Z,958.52
2022-11-01T19:20:19.323Z,958.53
2022-11-01T19:21:19.310Z,958.55
2022-11-01T19:22:19.296Z,958.53
2022-11-01T19:23:19.249Z,958.57
2022-11-01T19:24:19.241Z,958.54
2022-11-01T19:25:19.221Z,958.50
2022-11-01T19:26:19.228Z,958.52
2022-11-01T19:27:19.227Z,958.52
2022-11-01T19:28:19.177Z,958.50
2022-11-01T19:29:19.186Z,958.51
2022-11-01T19:30:19.152Z,958.50
2022-11-01T19:31:19.153Z,958.49
2022-11-01T19:32:19.147Z,958.52
2022-11-01T19:33:19.162Z,958.53
2022-11-01T19:34:19.113Z,958.50
2022-11-01T19:35:22.049Z,958.51
2022-11-01T19:36:19.167Z,958.54
2022-11-01T19:37:19.064Z,958.55
2022-11-01T19:38:19.162Z,958.54
2022-11-01T19:39:19.040Z,958.53
2022-11-01T19:40:20.848Z,958.59
2022-11-01T19:41:19.016Z,958.58
2022-11-01T19:42:19.017Z,958.59
2022-11-01T19:43:18.977Z,958.55
2022-11-01T19:44:18.970Z,958.57
2022-11-01T19:45:18.967Z,958.56
2022-11-01T19:46:18.953Z,958.58
2022-11-01T19:47:18.924Z,958.54
2022-11-01T19:48:18.995Z,958.57
2022-11-01T19:49:18.902Z,958.56
2022-11-01T19:50:18.894Z,958.50
2022-11-01T19:51:18.914Z,958.57
2022-11-01T19:52:18.881Z,958.59
2022-11-01T19:53:18.843Z,958.61
2022-11-01T19:54:18.844Z,958.62
2022-11-01T19:55:18.814Z,958.59
2022-11-01T19:56:18.804Z,958.60
2022-11-01T19:57:18.821Z,958.61
2022-11-01T19:58:18.772Z,958.56
2022-11-01T19:59:18.788Z,958.59
2022-11-01T20:00:18.769Z,958.61
2022-11-01T20:01:18.902Z,958.61
2022-11-01T20:02:18.808Z,958.64
2022-11-01T20:03:18.710Z,958.63
2022-11-01T20:04:20.949Z,958.63
2022-11-01T20:05:18.685Z,958.64
2022-11-01T20:06:18.681Z,958.61
2022-11-01T20:07:18.647Z,958.58
2022-11-01T20:08:18.633Z,958.63
2022-11-01T20:09:18.656Z,958.61
2022-11-01T20:10:18.603Z,958.60
2022-11-01T20:11:18.621Z,958.61
2022-11-01T20:12:21.988Z,958.59
2022-11-01T20:13:18.600Z,958.62
2022-11-01T20:14:18.581Z,958.65
2022-11-01T20:15:18.539Z,958.62
2022-11-01T20:16:18.569Z,958.63
2022-11-01T20:17:18.546Z,958.64
2022-11-01T20:18:18.499Z,958.62
2022-11-01T20:19:18.531Z,958.64
2022-11-01T20:20:18.496Z,958.64
2022-11-01T20:21:18.500Z,958.65
2022-11-01T20:22:18.454Z,958.61
2022-11-01T20:23:26.416Z,958.64
2022-11-01T20:24:18.415Z,958.66
2022-11-01T20:25:18.432Z,958.67
2022-11-01T20:26:18.435Z,958.67
2022-11-01T20:27:18.386Z,958.68
2022-11-01T20:28:18.385Z,958.68
2022-11-01T20:29:18.353Z,958.71
2022-11-01T20:30:18.369Z,958.70
2022-11-01T20:31:18.321Z,958.73
2022-11-01T20:32:18.314Z,958.74
2022-11-01T20:33:18.340Z,958.75
2022-11-01T20:34:18.286Z,958.80
2022-11-01T20:35:18.270Z,958.78
2022-11-01T20:36:18.255Z,958.79
2022-11-01T20:37:33.565Z,958.79
2022-11-01T20:39:21.166Z,958.72
2022-11-01T20:40:18.198Z,958.72
2022-11-01T20:41:18.188Z,958.75
2022-11-01T20:42:18.174Z,958.75
2022-11-01T20:43:18.190Z,958.74
2022-11-01T20:44:18.167Z,958.78
2022-11-01T20:45:18.131Z,958.82
2022-11-01T20:46:18.175Z,958.81
2022-11-01T20:47:18.116Z,958.81
2022-11-01T20:48:18.086Z,958.81
2022-11-01T20:49:18.080Z,958.80
2022-11-01T20:50:18.057Z,958.84
2022-11-01T20:51:18.094Z,958.86
2022-11-01T20:53:18.042Z,958.84
2022-11-01T20:54:18.310Z,958.88
2022-11-01T20:55:17.999Z,958.87
2022-11-01T20:56:18.006Z,958.88
2022-11-01T20:57:27.546Z,958.89
2022-11-01T20:58:17.976Z,958.89
2022-11-01T20:59:21.254Z,958.92
2022-11-01T21:00:17.949Z,958.90
2022-11-01T21:01:18.049Z,958.92
2022-11-01T21:02:18.095Z,958.91
2022-11-01T21:03:17.936Z,958.91
2022-11-01T21:04:17.865Z,958.94
2022-11-01T21:05:17.868Z,958.93
2022-11-01T21:06:17.863Z,958.90
2022-11-01T21:07:17.833Z,958.91
2022-11-01T21:08:17.815Z,958.92
2022-11-01T21:09:17.839Z,958.92
2022-11-01T21:10:17.786Z,958.97
2022-11-01T21:11:17.820Z,958.95
2022-11-01T21:12:17.765Z,958.90
2022-11-01T21:13:21.590Z,958.91
2022-11-01T21:14:17.732Z,958.92
2022-11-01T21:15:17.751Z,958.92
2022-11-01T21:16:17.728Z,958.94
2022-11-01T21:17:17.804Z,958.89
2022-11-01T21:18:17.694Z,958.94
2022-11-01T21:19:17.755Z,958.94
2022-11-01T21:20:17.651Z,958.96
2022-11-01T21:21:17.650Z,958.93
2022-11-01T21:22:17.629Z,958.91
2022-11-01T21:23:17.634Z,958.94
2022-11-01T21:24:17.629Z,958.94
2022-11-01T21:25:17.585Z,958.93
2022-11-01T21:26:17.581Z,958.92
2022-11-01T21:27:17.671Z,958.95
2022-11-01T21:28:17.580Z,958.94
2022-11-01T21:29:17.539Z,958.94
2022-11-01T21:30:17.547Z,958.91
2022-11-01T21:31:17.528Z,958.96
2022-11-01T21:32:17.496Z,958.97
2022-11-01T21:33:17.488Z,958.95
2022-11-01T21:34:17.466Z,958.97
2022-11-01T21:35:17.455Z,958.93
2022-11-01T21:36:17.464Z,958.93
2022-11-01T21:37:17.455Z,958.93
2022-11-01T21:38:17.420Z,958.92
2022-11-01T21:39:17.402Z,958.94
2022-11-01T21:40:17.382Z,958.90
2022-11-01T21:41:17.377Z,958.89
2022-11-01T21:42:17.384Z,958.87
2022-11-01T21:43:17.481Z,958.87
2022-11-01T21:44:17.404Z,958.89
2022-11-01T21:45:17.417Z,958.87
2022-11-01T21:46:17.367Z,958.88
2022-11-01T21:47:17.314Z,958.84
2022-11-01T21:48:17.272Z,958.87
2022-11-01T21:49:17.389Z,958.84
2022-11-01T21:50:17.245Z,958.88
2022-11-01T21:51:17.259Z,958.86
2022-11-01T21:52:17.242Z,958.88
2022-11-01T21:53:17.214Z,958.81
2022-11-01T21:54:17.223Z,958.82
2022-11-01T21:55:17.185Z,958.80
2022-11-01T21:56:17.170Z,958.79
2022-11-01T21:57:17.156Z,958.86
2022-11-01T21:58:17.142Z,958.87
2022-11-01T21:59:17.156Z,958.82
2022-11-01T22:00:17.143Z,958.81
2022-11-01T22:01:17.215Z,958.80
2022-11-01T22:02:17.252Z,958.81
2022-11-01T22:03:17.112Z,958.82
2022-11-01T22:04:17.054Z,958.79
2022-11-01T22:05:17.095Z,958.87
2022-11-01T22:06:17.033Z,958.85
2022-11-01T22:07:17.022Z,958.85
2022-11-01T22:08:17.003Z,958.84
2022-11-01T22:09:16.989Z,958.83
2022-11-01T22:10:16.982Z,958.79
2022-11-01T22:11:21.836Z,958.77
2022-11-01T22:12:16.952Z,958.79
2022-11-01T22:13:16.929Z,958.77
2022-11-01T22:14:16.929Z,958.75
2022-11-01T22:15:16.941Z,958.73
2022-11-01T22:16:16.897Z,958.76
2022-11-01T22:17:16.891Z,958.73
2022-11-01T22:18:19.850Z,958.78
2022-11-01T22:19:16.867Z,958.76
2022-11-01T22:20:16.879Z,958.77
2022-11-01T22:21:16.826Z,958.75
2022-11-01T22:22:16.824Z,958.76
2022-11-01T22:23:16.805Z,958.73
2022-11-01T22:24:16.817Z,958.73
2022-11-01T22:25:16.806Z,958.76
2022-11-01T22:26:16.755Z,958.75
2022-11-01T22:27:16.751Z,958.74
2022-11-01T22:28:16.730Z,958.77
2022-11-01T22:29:16.731Z,958.76
2022-11-01T22:30:16.742Z,958.75
2022-11-01T22:31:16.694Z,958.79
2022-11-01T22:32:16.705Z,958.77
2022-11-01T22:33:16.670Z,958.81
2022-11-01T22:34:16.642Z,958.81
2022-11-01T22:35:16.629Z,958.79
2022-11-01T22:36:16.635Z,958.84
2022-11-01T22:37:16.605Z,958.90
2022-11-01T22:38:16.598Z,958.86
2022-11-01T22:39:16.661Z,958.89
2022-11-01T22:40:16.572Z,958.81
2022-11-01T22:41:16.590Z,958.89
2022-11-01T22:42:16.551Z,958.85
2022-11-01T22:43:16.527Z,958.89
2022-11-01T22:44:16.508Z,958.85
2022-11-01T22:45:16.506Z,958.86
2022-11-01T22:46:16.499Z,958.86
2022-11-01T22:47:16.500Z,958.85
2022-11-01T22:48:16.469Z,958.84
2022-11-01T22:49:16.450Z,958.84
2022-11-01T22:50:16.448Z,958.89
2022-11-01T22:51:16.430Z,958.92
2022-11-01T22:52:16.426Z,958.89
2022-11-01T22:53:16.387Z,958.89
2022-11-01T22:54:16.397Z,958.86
2022-11-01T22:55:16.364Z,958.86
2022-11-01T22:56:16.425Z,958.84
2022-11-01T22:57:16.337Z,958.81
2022-11-01T22:58:16.331Z,958.80
2022-11-01T22:59:16.344Z,958.78
2022-11-01T23:00:19.320Z,958.81
2022-11-01T23:01:19.515Z,958.82
2022-11-01T23:02:16.414Z,958.82
2022-11-01T23:03:16.282Z,958.83
2022-11-01T23:04:16.240Z,958.85
2022-11-01T23:05:16.232Z,958.87
2022-11-01T23:06:16.215Z,958.85
2022-11-01T23:07:16.198Z,958.86
2022-11-01T23:08:16.209Z,958.83
2022-11-01T23:09:16.171Z,958.81
2022-11-01T23:10:16.154Z,958.81
2022-11-01T23:11:16.313Z,958.81
2022-11-01T23:12:16.115Z,958.83
2022-11-01T23:13:16.130Z,958.84
2022-11-01T23:14:16.112Z,958.82
2022-11-01T23:15:16.085Z,958.83
2022-11-01T23:16:16.085Z,958.81
2022-11-01T23:17:16.066Z,958.81
2022-11-01T23:18:16.091Z,958.79
2022-11-01T23:19:16.040Z,958.81
2022-11-01T23:20:16.016Z,958.78
2022-11-01T23:21:16.023Z,958.76
2022-11-01T23:22:15.999Z,958.79
2022-11-01T23:23:16.008Z,958.79
2022-11-01T23:24:15.976Z,958.76
2022-11-01T23:25:15.949Z,958.77
2022-11-01T23:26:15.950Z,958.80
2022-11-01T23:27:15.926Z,958.77
2022-11-01T23:28:15.907Z,958.76
2022-11-01T23:29:15.932Z,958.77
2022-11-01T23:30:15.876Z,958.78
2022-11-01T23:31:15.941Z,958.83
2022-11-01T23:32:15.860Z,958.79
2022-11-01T23:33:15.866Z,958.83
2022-11-01T23:34:15.845Z,958.81
2022-11-01T23:35:15.811Z,958.82
2022-11-01T23:36:15.817Z,958.76
2022-11-01T23:37:15.823Z,958.76
2022-11-01T23:38:15.772Z,958.77
2022-11-01T23:39:15.764Z,958.81
2022-11-01T23:40:15.785Z,958.83
2022-11-01T23:41:15.809Z,958.82
2022-11-01T23:42:15.729Z,958.85
2022-11-01T23:43:15.716Z,958.88
2022-11-01T23:44:15.732Z,958.85
2022-11-01T23:45:15.713Z,958.86
2022-11-01T23:46:15.705Z,958.90
2022-11-01T23:47:15.665Z,958.92
2022-11-01T23:48:15.673Z,958.89
2022-11-01T23:49:15.631Z,958.90
2022-11-01T23:50:15.661Z,958.92
2022-11-01T23:51:15.644Z,958.92
2022-11-01T23:52:15.605Z,958.93
2022-11-01T23:53:15.572Z,958.91
2022-11-01T23:54:15.626Z,958.88
2022-11-01T23:55:15.556Z,958.92
2022-11-01T23:56:15.581Z,958.89
2022-11-01T23:57:15.546Z,958.88
2022-11-01T23:58:15.549Z,958.89
2022-11-01T23:59:15.486Z,958.88
